createdAt,value
2023-04-13T00:01:52.544Z,0
2023-04-13T00:06:54.044Z,0.88715
2023-04-13T00:11:55.363Z,0
2023-04-13T00:16:56.859Z,0
2023-04-13T00:21:58.229Z,0
2023-04-13T00:26:59.516Z,0
2023-04-13T00:32:00.747Z,0
2023-04-13T00:37:02.344Z,0
2023-04-13T00:42:04.186Z,0
2023-04-13T00:47:05.762Z,0
2023-04-13T00:52:07.373Z,0.88715
2023-04-13T00:57:09.144Z,0
2023-04-13T01:02:10.562Z,0
2023-04-13T01:07:11.996Z,0
2023-04-13T01:12:13.733Z,0
2023-04-13T01:17:15.137Z,0
2023-04-13T01:22:16.384Z,0
2023-04-13T01:27:17.899Z,0.88715
2023-04-13T01:32:19.452Z,0
2023-04-13T01:37:20.857Z,0
2023-04-13T01:42:22.225Z,0
2023-04-13T01:47:23.567Z,0
2023-04-13T01:52:24.999Z,0
2023-04-13T01:57:26.355Z,0
2023-04-13T02:02:27.788Z,0
2023-04-13T02:07:29.310Z,0
2023-04-13T02:12:30.745Z,0
2023-04-13T02:17:32.253Z,0
2023-04-13T02:22:33.563Z,0
2023-04-13T02:27:34.941Z,0
2023-04-13T02:32:36.274Z,0
2023-04-13T02:37:37.821Z,0.88715
2023-04-13T02:42:39.229Z,0
2023-04-13T02:47:41.013Z,0.88715
2023-04-13T02:52:42.832Z,0
2023-04-13T02:57:44.346Z,0
2023-04-13T03:02:45.633Z,0
2023-04-13T03:07:46.976Z,0
2023-04-13T03:12:48.588Z,0
2023-04-13T03:17:49.848Z,0.88715
2023-04-13T03:22:51.268Z,0
2023-04-13T03:27:52.794Z,0
2023-04-13T03:32:54.068Z,0
2023-04-13T03:37:55.488Z,0
2023-04-13T03:42:56.773Z,0
2023-04-13T03:47:58.082Z,0.88715
2023-04-13T03:52:59.326Z,0.88715
2023-04-13T03:58:00.876Z,0.88715
2023-04-13T04:03:02.204Z,1.16185
2023-04-13T04:08:03.567Z,0.8296
2023-04-13T04:13:04.850Z,2.42955
2023-04-13T04:18:06.475Z,8.4467
2023-04-13T04:23:10.525Z,13.03895
2023-04-13T04:28:11.959Z,27.5345
2023-04-13T04:33:13.262Z,45.33115
2023-04-13T04:38:14.720Z,69.3611
2023-04-13T04:43:16.455Z,91.06735
2023-04-13T04:48:17.729Z,113.751
2023-04-13T04:53:19.113Z,131.9717
2023-04-13T04:58:20.672Z,147.8687
2023-04-13T05:03:21.975Z,162.60385
2023-04-13T05:08:23.260Z,174.6464
2023-04-13T05:13:25.223Z,185.47195
2023-04-13T05:18:26.488Z,198.2523
2023-04-13T05:23:27.780Z,205.77675
2023-04-13T05:28:29.322Z,215.8645
2023-04-13T05:33:30.706Z,223.25965
2023-04-13T05:38:31.977Z,238.493
2023-04-13T05:43:33.440Z,245.77785
2023-04-13T05:48:34.802Z,285.4842
2023-04-13T05:53:36.202Z,335.63005
2023-04-13T05:58:37.745Z,389.50105
2023-04-13T06:03:39.429Z,416.07715
2023-04-13T06:08:40.868Z,461.61175
2023-04-13T06:13:42.443Z,494.79005
2023-04-13T06:18:43.823Z,522.8779
2023-04-13T06:23:45.299Z,539.34725
2023-04-13T06:28:46.796Z,559.8555
2023-04-13T06:33:48.040Z,573.76155
2023-04-13T06:38:49.406Z,598.9172
2023-04-13T06:43:50.751Z,613.80065
2023-04-13T06:48:52.171Z,621.65785
2023-04-13T06:53:53.560Z,632.0232
2023-04-13T06:58:56.306Z,647.46
2023-04-13T07:03:59.207Z,660.5731
2023-04-13T07:09:00.817Z,666.4755
2023-04-13T07:14:02.315Z,669.2061
2023-04-13T07:19:03.765Z,679.6266
2023-04-13T07:24:05.141Z,666.6808
2023-04-13T07:29:06.685Z,707.88175
2023-04-13T07:34:07.938Z,721.73265
2023-04-13T07:39:09.347Z,726.04915
2023-04-13T07:44:11.421Z,738.8675
2023-04-13T07:49:13.141Z,749.0484
2023-04-13T07:54:16.680Z,762.23565
2023-04-13T07:59:18.384Z,762.03405
2023-04-13T08:04:19.895Z,773.3958
2023-04-13T08:09:21.430Z,767.5694
2023-04-13T08:14:22.704Z,770.24485
2023-04-13T08:19:24.166Z,793.2251
2023-04-13T08:24:25.595Z,815.83645
2023-04-13T08:29:27.660Z,816.87085
2023-04-13T08:34:29.202Z,835.62775
2023-04-13T08:39:30.489Z,843.50395
2023-04-13T08:44:33.720Z,864.71385
2023-04-13T08:49:34.995Z,884.92735
2023-04-13T08:54:36.379Z,887.78725
2023-04-13T08:59:37.723Z,897.85785
2023-04-13T09:04:39.424Z,928.36255
2023-04-13T09:09:41.352Z,920.5072
2023-04-13T09:14:42.905Z,950.7723
2023-04-13T09:19:44.548Z,955.75245
2023-04-13T09:24:46.427Z,975.9108
2023-04-13T09:29:47.785Z,1000.71655
2023-04-13T09:34:49.122Z,1006.74825
2023-04-13T09:39:50.409Z,1022.1299
2023-04-13T09:44:52.123Z,1067.97825
2023-04-13T09:49:53.777Z,1076.68355
2023-04-13T09:54:55.396Z,1096.3627
2023-04-13T09:59:57.005Z,1118.82575
2023-04-13T10:04:58.748Z,1133.41445
2023-04-13T10:10:00.761Z,1158.38565
2023-04-13T10:15:02.472Z,1215.16985
2023-04-13T10:20:04.303Z,1229.73955
2023-04-13T10:25:06.373Z,1280.54905
2023-04-13T10:30:08.090Z,1319.4073
2023-04-13T10:35:09.796Z,1317.3992
2023-04-13T10:40:11.409Z,1356.05215
2023-04-13T10:45:13.038Z,1415.7324
2023-04-13T10:50:14.669Z,1451.1774
2023-04-13T10:55:16.545Z,1482.2373
2023-04-13T11:00:18.271Z,1547.6508
2023-04-13T11:05:20.202Z,1615.11225
2023-04-13T11:10:21.834Z,1596.19175
2023-04-13T11:15:23.668Z,1647.60975
2023-04-13T11:20:25.361Z,1747.84075
2023-04-13T11:25:27.235Z,1843.43175
2023-04-13T11:30:29.150Z,1779.6556
2023-04-13T11:35:30.734Z,680.77735
2023-04-13T11:40:32.087Z,1833.1577
2023-04-13T11:45:33.712Z,617.3205
2023-04-13T11:50:34.964Z,1668.71355
2023-04-13T11:55:51.814Z,1843.2399
2023-04-13T12:01:02.156Z,1863.8186
2023-04-13T12:06:04.957Z,1865.91985
2023-04-13T12:11:36.502Z,1892.95985
2023-04-13T12:17:02.952Z,1924.21395
2023-04-13T12:22:06.910Z,1972.36515
2023-04-13T12:27:17.090Z,1911.137
2023-04-13T12:32:19.970Z,686.34515
2023-04-13T12:37:21.607Z,1947.40925
2023-04-13T12:42:26.095Z,2011.9992
2023-04-13T12:47:29.497Z,1972.1807
2023-04-13T12:52:31.491Z,1347.9999
2023-04-13T12:57:33.191Z,1943.31335
2023-04-13T13:02:35.773Z,1876.8446
2023-04-13T13:07:37.673Z,1904.61685
2023-04-13T13:12:39.071Z,1926.80415
2023-04-13T13:17:40.805Z,1868.7821
2023-04-13T13:22:44.443Z,1849.1771
2023-04-13T13:32:54.866Z,1842.206
2023-04-13T13:37:56.846Z,1813.7817
2023-04-13T13:42:58.780Z,1821.6732
2023-04-13T13:48:00.976Z,1806.40185
2023-04-13T13:53:04.372Z,1731.4331
2023-04-13T13:58:06.995Z,1688.03775
2023-04-13T14:03:08.997Z,1657.53305
2023-04-13T14:08:10.962Z,1621.66215
2023-04-13T14:13:13.087Z,1624.92525
2023-04-13T14:18:15.390Z,1517.25925
2023-04-13T14:23:16.934Z,1559.3616
2023-04-13T14:28:18.680Z,1448.8737
2023-04-13T14:33:20.369Z,1407.0091
2023-04-13T14:38:21.950Z,1286.93165
2023-04-13T14:43:23.763Z,1143.6172
2023-04-13T14:48:25.435Z,1072.96495
2023-04-13T14:53:29.577Z,928.0456
2023-04-13T14:58:31.804Z,760.12885
2023-04-13T15:03:33.842Z,602.53945
2023-04-13T15:08:35.297Z,467.6527
2023-04-13T15:13:36.671Z,353.66025
2023-04-13T15:18:38.192Z,261.35505
2023-04-13T15:23:39.791Z,181.20905
2023-04-13T15:28:42.226Z,135.5215
2023-04-13T15:33:46.983Z,87.03215
2023-04-13T15:38:50.607Z,76.6288
2023-04-13T15:43:52.093Z,56.72905
2023-04-13T15:48:54.006Z,37.51195
2023-04-13T15:53:57.275Z,23.8645
2023-04-13T15:58:59.109Z,8.2071
2023-04-13T16:04:00.953Z,4.08875
2023-04-13T16:09:02.526Z,2.13325
2023-04-13T16:14:04.145Z,0.5333
2023-04-13T16:19:05.823Z,0
2023-04-13T16:24:07.178Z,0.88715
2023-04-13T16:29:08.830Z,0.88715
2023-04-13T16:34:24.341Z,0.88715
2023-04-13T16:39:27.561Z,0.88715
2023-04-13T16:44:33.453Z,0
2023-04-13T16:49:35.377Z,0
2023-04-13T16:54:37.267Z,0
2023-04-13T16:59:38.598Z,0.88715
2023-04-13T17:04:41.152Z,0
2023-04-13T17:09:43.933Z,0
2023-04-13T17:14:47.721Z,0
2023-04-13T17:20:03.628Z,0.88715
2023-04-13T17:25:09.992Z,0
2023-04-13T17:30:15.883Z,0.88715
2023-04-13T17:35:22.212Z,0
2023-04-13T17:40:23.953Z,0
2023-04-13T17:45:25.520Z,0
2023-04-13T17:50:34.041Z,0
2023-04-13T17:55:35.544Z,0
2023-04-13T18:00:36.988Z,0
2023-04-13T18:05:41.405Z,0.88715
2023-04-13T18:10:43.842Z,0
2023-04-13T18:15:49.130Z,0
2023-04-13T18:20:52.284Z,0
2023-04-13T18:25:54.698Z,0.88715
2023-04-13T18:30:58.431Z,0
2023-04-13T18:36:06.122Z,0
2023-04-13T18:41:09.624Z,0
2023-04-13T18:46:19.328Z,0
2023-04-13T18:51:25.362Z,0
2023-04-13T18:56:33.338Z,0
2023-04-13T19:01:36.959Z,0
2023-04-13T19:06:38.610Z,0
2023-04-13T19:11:40.270Z,0
2023-04-13T19:16:41.592Z,0
2023-04-13T19:21:43.397Z,0
2023-04-13T19:26:44.876Z,0
2023-04-13T19:31:46.517Z,0
2023-04-13T19:36:48.510Z,0
2023-04-13T19:41:50.064Z,0
2023-04-13T19:46:51.851Z,0
2023-04-13T19:51:53.958Z,0
2023-04-13T19:56:55.517Z,0
2023-04-13T20:01:57.295Z,0.88715
2023-04-13T20:06:59.454Z,0
2023-04-13T20:12:01.126Z,0
2023-04-13T20:17:03.289Z,0
2023-04-13T20:22:05.314Z,0
2023-04-13T20:27:07.121Z,0
2023-04-13T20:32:08.971Z,0
2023-04-13T20:37:10.738Z,0
2023-04-13T20:42:12.380Z,0
2023-04-13T20:47:14.430Z,0
2023-04-13T20:52:15.911Z,0
2023-04-13T20:57:17.706Z,0
2023-04-13T21:02:22.738Z,0
2023-04-13T21:07:26.649Z,0
2023-04-13T21:12:28.636Z,0
2023-04-13T21:17:30.400Z,0.88715
2023-04-13T21:22:33.230Z,0
2023-04-13T21:27:34.986Z,0
2023-04-13T21:32:36.389Z,0
2023-04-13T21:37:40.166Z,0
2023-04-13T21:42:45.187Z,0
2023-04-13T21:47:46.872Z,0
2023-04-13T21:52:48.854Z,0
2023-04-13T21:57:50.490Z,0.88715
2023-04-13T22:02:52.304Z,0
2023-04-13T22:07:54.220Z,0
2023-04-13T22:12:56.138Z,0
2023-04-13T22:17:57.692Z,0
2023-04-13T22:22:59.898Z,0
2023-04-13T22:28:02.435Z,0
2023-04-13T22:33:03.906Z,0
2023-04-13T22:38:06.309Z,0
2023-04-13T22:43:08.016Z,0.88715
2023-04-13T22:48:09.647Z,0
2023-04-13T22:53:11.415Z,0
2023-04-13T22:58:12.876Z,0
2023-04-13T23:03:14.621Z,0
2023-04-13T23:08:16.402Z,0
2023-04-13T23:13:17.899Z,0
2023-04-13T23:18:19.319Z,0
2023-04-13T23:23:21.260Z,0
2023-04-13T23:28:22.917Z,0
2023-04-13T23:33:24.573Z,0
2023-04-13T23:38:26.588Z,0
2023-04-13T23:43:33.020Z,0.88715
2023-04-13T23:48:36.296Z,0.88715
2023-04-13T23:53:37.787Z,0
2023-04-13T23:58:39.310Z,0
